Terminal Aerodrome Forecast
Issued by NWS Denver/Boulder, CO

Home | Current Version | Previous Version | Text Only | Print | Product List | Glossary On
Versions: 1 2 3 4 5 6 7 8 9 10 11 12 13 14 15 16 17 18 19 20 21 22 23 24 25 26 27 28 29 30 31 32 33 34 35 36 37 38 39 40 41 42 43 44 45 46 47 48 49 50
000
FTUS45 KBOU 042041 AAB
TAFDEN
TAF AMD
KDEN 042041Z 0421/0524 13007KT P6SM SCT025 BKN050
      TEMPO 0421/0423 5SM -SN BR OVC025
     FM050000 14009KT P6SM FEW030 SCT050
     FM050200 16008KT P6SM SCT070
     FM050600 21012KT P6SM FEW200
     FM051800 17012KT P6SM FEW220=

USA.gov is the U.S. government's official web portal to all federal, state and local government web resources and services.